Terminal Aerodrome Forecast
Issued by NWS Sioux Falls, SD

Home | Current Version | Previous Version | Text Only | Print | Product List | Glossary Off
Versions: 1 2 3 4 5 6 7 8 9 10 11 12

000
FTUS43 KFSD 021720
TAFSUX
TAF
KSUX 021720Z 0218/0318 VRB03KT P6SM SCT250
     FM022100 27004KT P6SM BKN200
     FM030100 20004KT P6SM SCT200
     FM031200 VRB03KT P6SM FEW045
     FM031400 26005KT P6SM FEW250
     FM031700 28009KT P6SM FEW250=

USA.gov is the U.S. government's official web portal to all federal, state and local government web resources and services.